Terminal Aerodrome Forecast
Issued by NWS

Home | Current Version | Previous Version | Text Only | Print | Product List | Glossary On
Versions: 1 2 3 4 5 6 7 8 9 10 11 12 13
000
FTUS45 KRIW 250500
TAFBPI
TAF
KBPI 250533Z 2506/2606 12006KT 4SM -SN SCT015 OVC030
     FM250900 14007KT 2SM -SN SCT012 OVC020
     FM251300 13010KT 1SM -SN OVC012
     FM252200 05007KT 3SM -SN SCT015 OVC030=

USA.gov is the U.S. government's official web portal to all federal, state and local government web resources and services.